Time;durP1;ratioP1;P1;durP2;ratioP2;P2;SDS_P1;SDS_P2;PMS_P1;PMS_P2;Temp;Humidity;BMP_temperature;BMP_pressure;BME280_temperature;BME280_humidity;BME280_pressure;Samples;Min_cycle;Max_cycle;Signal;HPM_P1;HPM_P2
2023/04/18 00:00:21;;;;;;;23.75;15.80;;;;;;;;;;5028358;28;20235;-85
2023/04/18 00:02:46;;;;;;;22.07;14.00;;;7.10;99.90;;;;;;5031067;28;20210;-85
2023/04/18 00:05:12;;;;;;;22.10;15.07;;;7.10;99.90;;;;;;5013501;28;20563;-86
2023/04/18 00:07:38;;;;;;;24.70;14.60;;;;;;;;;;5032081;28;20201;-85
2023/04/18 00:10:05;;;;;;;30.83;15.30;;;7.00;99.90;;;;;;5007818;28;20216;-88
2023/04/18 00:12:33;;;;;;;28.33;16.15;;;7.10;99.90;;;;;;5037114;28;20244;-87
2023/04/18 00:14:59;;;;;;;25.98;16.70;;;;;;;;;;5018093;28;20232;-85
2023/04/18 00:17:29;;;;;;;21.42;15.48;;;7.20;99.90;;;;;;5022350;28;20216;-86
2023/04/18 00:19:57;;;;;;;25.35;14.80;;;;;;;;;;5034216;28;20189;-87
2023/04/18 00:22:23;;;;;;;33.53;17.48;;;7.20;99.90;;;;;;5014497;28;20315;-85
2023/04/18 00:24:49;;;;;;;23.60;15.85;;;;;;;;;;5017721;28;20830;-86
2023/04/18 00:27:18;;;;;;;23.40;15.13;;;7.40;99.90;;;;;;5043545;23;20241;-82
2023/04/18 00:29:43;;;;;;;22.33;15.75;;;7.50;99.90;;;;;;5032698;28;20181;-82
2023/04/18 00:32:09;;;;;;;21.77;14.53;;;7.50;99.90;;;;;;5034890;28;20263;-83
2023/04/18 00:34:35;;;;;;;24.10;14.83;;;;;;;;;;5029844;28;20190;-78
2023/04/18 00:37:01;;;;;;;23.10;15.95;;;7.60;99.90;;;;;;4997627;28;20613;-79
2023/04/18 00:39:26;;;;;;;22.83;15.27;;;7.50;99.90;;;;;;5011712;28;20243;-81
2023/04/18 00:41:52;;;;;;;35.67;15.00;;;7.50;99.90;;;;;;5010912;28;20187;-79
2023/04/18 00:44:18;;;;;;;23.53;15.07;;;;;;;;;;5014978;28;20193;-81
2023/04/18 00:46:44;;;;;;;25.70;14.80;;;7.70;99.90;;;;;;4990141;28;20202;-80
2023/04/18 00:49:11;;;;;;;20.40;13.98;;;7.60;99.90;;;;;;5014379;28;20468;-79
2023/04/18 00:51:38;;;;;;;18.23;12.85;;;7.50;99.90;;;;;;5021466;28;20174;-77
2023/04/18 00:54:05;;;;;;;26.58;14.80;;;7.40;99.90;;;;;;5022247;28;20938;-80
2023/04/18 00:56:31;;;;;;;23.60;15.98;;;7.30;99.90;;;;;;5014859;28;20210;-83
2023/04/18 00:58:57;;;;;;;23.37;14.37;;;7.40;99.90;;;;;;5004419;28;20247;-80
2023/04/18 01:01:23;;;;;;;25.63;14.83;;;;;;;;;;5007493;28;20187;-81
2023/04/18 01:03:48;;;;;;;23.85;16.10;;;7.40;99.90;;;;;;5009262;28;20436;-78
2023/04/18 01:06:14;;;;;;;25.23;15.10;;;7.50;99.90;;;;;;5011138;28;20764;-80
2023/04/18 01:08:41;;;;;;;25.97;14.77;;;7.50;99.90;;;;;;5021521;28;20201;-79
2023/04/18 01:11:07;;;;;;;23.73;12.98;;;;;;;;;;5023186;28;20416;-80
2023/04/18 01:13:32;;;;;;;23.97;15.77;;;7.50;99.90;;;;;;5028828;28;20186;-81
2023/04/18 01:15:58;;;;;;;27.50;15.77;;;7.50;99.90;;;;;;5016873;28;20461;-81
2023/04/18 01:18:24;;;;;;;23.23;14.03;;;7.50;99.90;;;;;;4993907;28;20182;-78
2023/04/18 01:20:51;;;;;;;23.10;15.03;;;7.50;99.90;;;;;;4993161;28;20196;-81
2023/04/18 01:23:18;;;;;;;23.38;14.65;;;7.50;99.90;;;;;;5009464;28;20272;-78
2023/04/18 01:25:44;;;;;;;20.05;14.23;;;7.40;99.90;;;;;;5007168;28;20209;-79
2023/04/18 01:28:12;;;;;;;26.60;14.88;;;7.40;99.90;;;;;;5005774;28;21398;-78
2023/04/18 01:30:38;;;;;;;20.88;12.40;;;7.40;99.90;;;;;;5011942;28;20182;-83
2023/04/18 01:33:04;;;;;;;20.70;13.90;;;;;;;;;;5007956;28;20233;-79
2023/04/18 01:35:30;;;;;;;25.92;14.57;;;7.60;99.90;;;;;;5006014;28;20190;-79
2023/04/18 01:37:56;;;;;;;22.55;14.02;;;7.50;99.90;;;;;;5013320;28;20186;-82
2023/04/18 01:40:23;;;;;;;21.17;13.27;;;;;;;;;;5008048;28;20196;-81
2023/04/18 01:42:49;;;;;;;21.63;13.77;;;7.60;99.90;;;;;;5008339;28;20429;-84
2023/04/18 01:45:15;;;;;;;25.43;14.03;;;7.50;99.90;;;;;;5011563;28;20269;-81
2023/04/18 01:47:41;;;;;;;20.33;14.57;;;7.50;99.90;;;;;;5010646;28;20210;-78
2023/04/18 01:50:07;;;;;;;25.15;13.60;;;7.50;99.90;;;;;;5011504;28;20252;-82
2023/04/18 01:52:33;;;;;;;24.63;13.52;;;7.50;99.90;;;;;;5009910;28;20197;-78
2023/04/18 01:55:00;;;;;;;21.90;15.57;;;7.50;99.90;;;;;;4993891;28;20193;-82
2023/04/18 01:57:27;;;;;;;24.50;14.75;;;7.50;99.90;;;;;;4993363;28;20205;-77
2023/04/18 01:59:52;;;;;;;20.35;13.60;;;7.50;99.90;;;;;;4997324;28;20191;-81
2023/04/18 02:02:18;;;;;;;24.23;13.27;;;7.60;99.90;;;;;;5008360;28;20414;-81
2023/04/18 02:04:43;;;;;;;26.17;13.13;;;7.60;99.90;;;;;;5006178;28;20201;-83
2023/04/18 02:07:09;;;;;;;28.33;15.60;;;7.60;99.90;;;;;;5010826;28;20284;-81
2023/04/18 02:09:34;;;;;;;20.03;13.43;;;7.40;99.90;;;;;;5009038;28;20186;-81
2023/04/18 02:12:01;;;;;;;23.97;14.20;;;7.50;99.90;;;;;;4996757;28;20258;-81
2023/04/18 02:14:31;;;;;;;18.52;13.82;;;7.50;99.90;;;;;;5014038;28;20177;-82
2023/04/18 02:16:57;;;;;;;29.80;19.02;;;7.60;99.90;;;;;;5012974;28;20206;-81
2023/04/18 02:19:23;;;;;;;27.58;14.43;;;7.60;99.90;;;;;;5010418;28;20189;-80
2023/04/18 02:21:49;;;;;;;40.70;26.37;;;;;;;;;;5027895;28;20178;-80
2023/04/18 02:24:15;;;;;;;43.35;27.25;;;;;;;;;;5021159;28;20206;-82
2023/04/18 02:26:41;;;;;;;29.23;18.20;;;7.30;99.90;;;;;;5014056;28;20249;-82
2023/04/18 02:29:06;;;;;;;27.03;15.57;;;7.20;99.90;;;;;;4997945;28;20213;-80
2023/04/18 02:31:32;;;;;;;29.90;20.13;;;;;;;;;;5014792;28;20182;-82
2023/04/18 02:33:58;;;;;;;30.40;17.38;;;7.00;99.90;;;;;;4998708;28;20175;-80
2023/04/18 02:36:26;;;;;;;29.50;16.57;;;7.00;99.90;;;;;;5016694;28;20206;-82
2023/04/18 02:38:53;;;;;;;26.90;17.00;;;7.00;99.90;;;;;;5004983;28;20539;-80
2023/04/18 02:41:18;;;;;;;25.67;16.48;;;;;;;;;;5014520;28;20276;-83
2023/04/18 02:43:44;;;;;;;24.23;15.47;;;7.10;99.90;;;;;;4995310;28;20274;-78
2023/04/18 02:46:10;;;;;;;26.20;16.20;;;;;;;;;;5015687;28;21228;-81
2023/04/18 02:48:36;;;;;;;20.13;13.60;;;7.20;99.90;;;;;;5016536;28;20463;-81
2023/04/18 02:51:03;;;;;;;25.80;16.07;;;7.20;99.90;;;;;;5015352;28;20447;-82
2023/04/18 02:53:29;;;;;;;21.88;15.05;;;7.10;99.90;;;;;;5013044;28;20651;-84
2023/04/18 02:55:55;;;;;;;23.97;14.00;;;;;;;;;;5013109;28;20213;-82
2023/04/18 02:58:20;;;;;;;25.43;16.77;;;6.90;99.90;;;;;;5003065;28;20186;-83
2023/04/18 03:00:46;;;;;;;25.80;15.10;;;;;;;;;;5010851;28;20437;-80
2023/04/18 03:03:12;;;;;;;33.93;16.00;;;6.70;99.90;;;;;;5016865;28;20189;-80
2023/04/18 03:05:38;;;;;;;28.13;16.93;;;6.50;99.90;;;;;;5013667;28;20437;-79
2023/04/18 03:08:04;;;;;;;26.85;13.45;;;6.50;99.90;;;;;;5002780;28;20213;-79
2023/04/18 03:10:30;;;;;;;27.17;16.30;;;6.40;99.90;;;;;;5012505;28;20182;-81
2023/04/18 03:12:56;;;;;;;23.07;16.57;;;;;;;;;;5016510;28;20435;-81
2023/04/18 03:15:21;;;;;;;24.50;15.90;;;6.30;99.90;;;;;;5015931;28;20182;-84
2023/04/18 03:17:47;;;;;;;29.47;15.80;;;6.20;99.90;;;;;;5012946;28;20459;-82
2023/04/18 03:20:13;;;;;;;23.20;15.70;;;6.20;99.90;;;;;;4993250;28;20186;-83
2023/04/18 03:22:38;;;;;;;28.83;15.63;;;6.30;99.90;;;;;;5014146;28;20268;-80
2023/04/18 03:25:05;;;;;;;25.87;14.40;;;6.30;99.90;;;;;;5016990;28;20190;-81
2023/04/18 03:27:31;;;;;;;27.38;15.70;;;6.40;99.90;;;;;;5012704;28;20348;-82
2023/04/18 03:29:57;;;;;;;23.70;14.70;;;;;;;;;;5012975;28;20265;-79
2023/04/18 03:32:22;;;;;;;24.80;15.30;;;6.30;99.90;;;;;;5011549;28;20182;-79
2023/04/18 03:34:49;;;;;;;23.27;14.67;;;6.30;99.90;;;;;;5013763;28;20462;-80
2023/04/18 03:37:15;;;;;;;21.02;15.43;;;6.30;99.90;;;;;;4997210;28;20217;-78
2023/04/18 03:39:40;;;;;;;25.83;15.80;;;6.20;99.90;;;;;;5015587;28;20214;-76
2023/04/18 03:42:06;;;;;;;28.93;16.53;;;6.10;99.90;;;;;;5034730;28;20200;-80
2023/04/18 03:44:31;;;;;;;28.17;14.87;;;6.20;99.90;;;;;;5031476;28;20218;-80
2023/04/18 03:46:57;;;;;;;24.77;15.67;;;;;;;;;;5036417;28;20238;-79
2023/04/18 03:49:23;;;;;;;56.88;34.72;;;6.20;99.90;;;;;;5040494;28;20201;-81
2023/04/18 03:51:48;;;;;;;27.90;16.63;;;6.20;99.90;;;;;;5023277;28;20688;-79
2023/04/18 03:54:15;;;;;;;26.63;14.70;;;6.10;99.90;;;;;;5023557;28;20205;-82
2023/04/18 03:56:41;;;;;;;27.52;17.27;;;6.70;99.90;;;;;;5021120;28;20197;-79
2023/04/18 03:59:06;;;;;;;23.37;15.07;;;6.10;99.90;;;;;;5005268;28;20236;-83
2023/04/18 04:01:32;;;;;;;81.10;36.43;;;6.10;99.90;;;;;;5015360;28;20193;-79
2023/04/18 04:03:58;;;;;;;35.87;22.37;;;6.60;99.90;;;;;;4997406;28;20178;-81
2023/04/18 04:06:24;;;;;;;27.50;18.20;;;5.90;99.90;;;;;;5010743;28;20198;-80
2023/04/18 04:08:50;;;;;;;22.63;15.55;;;5.80;99.90;;;;;;5014810;28;20238;-79
2023/04/18 04:11:16;;;;;;;27.43;17.80;;;5.90;99.90;;;;;;5011889;28;20630;-80
2023/04/18 04:13:41;;;;;;;26.90;20.33;;;5.80;99.90;;;;;;5009601;28;20244;-80
2023/04/18 04:16:07;;;;;;;24.33;16.77;;;5.90;99.90;;;;;;5006813;28;20457;-80
2023/04/18 04:18:33;;;;;;;25.83;14.87;;;5.90;99.90;;;;;;5007181;28;20188;-78
2023/04/18 04:20:59;;;;;;;25.23;17.87;;;6.00;99.90;;;;;;5013356;28;20278;-79
2023/04/18 04:23:25;;;;;;;25.00;15.33;;;;;;;;;;5008982;28;21168;-80
2023/04/18 04:25:51;;;;;;;27.98;16.67;;;6.10;99.90;;;;;;4973559;28;1006048;-77
2023/04/18 04:28:21;;;;;;;26.77;16.95;;;6.10;99.90;;;;;;5012767;28;20504;-83
2023/04/18 04:30:50;;;;;;;30.75;21.00;;;6.20;99.90;;;;;;5011958;28;20361;-77
2023/04/18 04:33:19;;;;;;;30.10;15.70;;;6.30;99.90;;;;;;4991271;28;20232;-81
2023/04/18 04:35:46;;;;;;;31.58;18.23;;;6.20;99.90;;;;;;4993489;28;20182;-82
2023/04/18 04:38:14;;;;;;;23.55;15.35;;;6.30;99.90;;;;;;5011035;28;20301;-81
2023/04/18 04:40:40;;;;;;;27.48;16.27;;;6.30;99.90;;;;;;5011988;28;20210;-79
2023/04/18 04:43:06;;;;;;;29.55;19.35;;;6.30;99.90;;;;;;4991055;28;20248;-79
2023/04/18 04:45:32;;;;;;;29.50;17.63;;;6.20;99.90;;;;;;5007480;28;20182;-82
2023/04/18 04:47:58;;;;;;;33.03;19.80;;;;;;;;;;5009723;28;20472;-83
2023/04/18 04:50:24;;;;;;;24.23;16.27;;;6.30;99.90;;;;;;4992707;28;20216;-78
2023/04/18 04:52:50;;;;;;;29.23;15.87;;;6.30;99.90;;;;;;5002318;28;20662;-79
2023/04/18 04:55:17;;;;;;;33.03;15.63;;;6.30;99.90;;;;;;5013763;28;20506;-79
2023/04/18 04:57:43;;;;;;;29.88;16.52;;;6.30;99.90;;;;;;5020307;28;20206;-80
2023/04/18 05:00:10;;;;;;;25.70;15.05;;;6.40;99.90;;;;;;5012820;28;20693;-81
2023/04/18 05:02:35;;;;;;;28.02;15.98;;;6.40;99.90;;;;;;4998187;28;20280;-82
2023/04/18 05:05:01;;;;;;;23.27;14.03;;;;;;;;;;5011973;28;20262;-82
2023/04/18 05:07:27;;;;;;;25.80;15.27;;;6.30;99.90;;;;;;5017243;28;20264;-82
2023/04/18 05:09:52;;;;;;;25.63;15.50;;;6.20;99.90;;;;;;5012884;28;20465;-83
2023/04/18 05:12:18;;;;;;;37.20;16.17;;;;;;;;;;5016712;28;20265;-82
2023/04/18 05:14:44;;;;;;;30.27;15.60;;;6.20;99.90;;;;;;4996943;28;20440;-82
2023/04/18 05:17:09;;;;;;;31.70;16.03;;;6.20;99.90;;;;;;5004152;28;20198;-77
2023/04/18 05:19:35;;;;;;;25.30;15.90;;;6.30;99.90;;;;;;5033209;28;20186;-80
2023/04/18 05:22:01;;;;;;;22.23;15.37;;;6.30;99.90;;;;;;5027045;28;20285;-79
2023/04/18 05:24:26;;;;;;;27.00;15.57;;;6.20;99.90;;;;;;5014348;28;20185;-77
2023/04/18 05:26:52;;;;;;;24.83;15.27;;;6.20;99.90;;;;;;5013337;28;20405;-81
2023/04/18 05:29:19;;;;;;;21.17;13.40;;;6.20;99.90;;;;;;4998258;28;20221;-79
2023/04/18 05:31:44;;;;;;;26.75;13.48;;;6.20;99.90;;;;;;4994936;28;20453;-83
2023/04/18 05:34:10;;;;;;;38.97;15.13;;;6.30;99.90;;;;;;5005766;28;20235;-79
2023/04/18 05:36:36;;;;;;;24.03;13.33;;;;;;;;;;5011545;28;20198;-83
2023/04/18 05:39:02;;;;;;;22.17;14.48;;;6.60;99.90;;;;;;4997263;28;20228;-82
2023/04/18 05:41:28;;;;;;;25.43;15.40;;;;;;;;;;5010588;28;20265;-81
2023/04/18 05:43:54;;;;;;;20.73;13.77;;;;;;;;;;5011003;28;20226;-81
2023/04/18 05:46:20;;;;;;;20.50;13.50;;;7.00;99.90;;;;;;4999202;28;20451;-82
2023/04/18 05:48:45;;;;;;;21.90;14.83;;;7.10;99.90;;;;;;5000672;28;20202;-84
2023/04/18 05:51:11;;;;;;;21.63;14.40;;;;;;;;;;5013607;28;21220;-81
2023/04/18 05:53:36;;;;;;;22.00;14.13;;;7.00;99.90;;;;;;4999170;28;20224;-83
2023/04/18 05:56:02;;;;;;;28.80;16.00;;;7.10;99.90;;;;;;5017507;28;20456;-82
2023/04/18 05:58:28;;;;;;;26.73;15.23;;;7.20;99.90;;;;;;5010543;28;20201;-79
2023/04/18 06:00:53;;;;;;;26.10;14.87;;;7.20;99.90;;;;;;5008975;28;20185;-84
2023/04/18 06:03:19;;;;;;;22.03;13.77;;;7.30;99.90;;;;;;5011840;28;20186;-82
2023/04/18 06:05:44;;;;;;;22.60;14.10;;;7.60;99.90;;;;;;5009747;28;20190;-83
2023/04/18 06:08:10;;;;;;;22.33;13.90;;;7.60;99.90;;;;;;5021096;28;20400;-79
2023/04/18 06:10:36;;;;;;;22.23;14.70;;;;;;;;;;5035274;28;20201;-79
2023/04/18 06:13:02;;;;;;;26.23;15.07;;;;;;;;;;5024038;28;20271;-84
2023/04/18 06:15:28;;;;;;;24.70;13.87;;;7.60;99.90;;;;;;5020322;28;20515;-84
2023/04/18 06:17:53;;;;;;;18.70;12.00;;;7.70;99.90;;;;;;5013760;28;21386;-80
2023/04/18 06:20:21;;;;;;;21.10;12.57;;;7.70;99.90;;;;;;5014725;28;20193;-81
2023/04/18 06:22:47;;;;;;;21.58;13.70;;;7.80;99.90;;;;;;5044903;28;20187;-78
2023/04/18 06:25:14;;;;;;;19.20;12.13;;;;;;;;;;5024434;28;20182;-78
2023/04/18 06:27:39;;;;;;;22.45;13.70;;;8.00;99.90;;;;;;5021235;28;20232;-82
2023/04/18 06:30:06;;;;;;;20.50;13.63;;;8.20;99.90;;;;;;5004363;28;20186;-79
2023/04/18 06:32:32;;;;;;;22.27;14.18;;;8.20;99.90;;;;;;5011134;28;20185;-79
2023/04/18 06:34:58;;;;;;;22.77;14.30;;;8.30;99.90;;;;;;5006205;28;20190;-81
2023/04/18 06:37:24;;;;;;;25.57;15.57;;;8.40;99.90;;;;;;5011686;28;20452;-81
2023/04/18 06:39:50;;;;;;;20.98;12.10;;;;;;;;;;5012845;28;20189;-80
2023/04/18 06:42:16;;;;;;;21.93;13.37;;;;;;;;;;4994686;28;20183;-80
2023/04/18 06:44:42;;;;;;;24.27;13.70;;;8.20;99.90;;;;;;4992263;28;20429;-81
2023/04/18 06:47:08;;;;;;;25.57;15.07;;;;;;;;;;5019114;28;20476;-80
2023/04/18 06:49:35;;;;;;;21.10;12.98;;;8.20;99.90;;;;;;5040715;28;20190;-78
2023/04/18 06:52:01;;;;;;;23.08;12.25;;;;;;;;;;5014445;28;20201;-77
2023/04/18 06:54:26;;;;;;;20.63;13.10;;;8.10;99.90;;;;;;4998786;28;20170;-79
2023/04/18 06:56:52;;;;;;;17.93;12.60;;;8.10;99.90;;;;;;5013813;28;20520;-81
2023/04/18 06:59:20;;;;;;;20.40;12.43;;;8.10;99.90;;;;;;5012938;28;20182;-82
2023/04/18 07:01:47;;;;;;;24.27;13.02;;;;;;;;;;4996659;28;20186;-82
2023/04/18 07:04:13;;;;;;;28.30;12.00;;;7.90;99.90;;;;;;4992691;28;20217;-83
2023/04/18 07:06:39;;;;;;;21.83;12.80;;;7.80;99.90;;;;;;5028592;23;20312;-85
2023/04/18 07:09:04;;;;;;;23.77;12.83;;;7.70;99.90;;;;;;5029830;28;20224;-83
2023/04/18 07:11:30;;;;;;;31.47;13.83;;;;;;;;;;5014267;28;20220;-86
2023/04/18 07:13:56;;;;;;;23.43;13.97;;;;;;;;;;5014943;28;21203;-89
2023/04/18 07:16:22;;;;;;;21.27;12.60;;;;;;;;;;5010727;28;20452;-87
2023/04/18 07:18:48;;;;;;;20.77;12.80;;;;;;;;;;5008769;28;20436;-88
2023/04/18 07:21:13;;;;;;;22.67;12.67;;;8.70;99.90;;;;;;5015081;28;20468;-83
2023/04/18 07:23:39;;;;;;;23.90;12.80;;;;;;;;;;5004508;28;20444;-87
2023/04/18 07:26:06;;;;;;;29.80;14.63;;;;;;;;;;5002042;28;20214;-87
2023/04/18 07:28:31;;;;;;;23.00;13.85;;;8.30;99.90;;;;;;5004172;28;20472;-88
2023/04/18 07:30:58;;;;;;;30.53;14.40;;;;;;;;;;5025419;28;20264;-86
2023/04/18 07:33:24;;;;;;;20.10;12.88;;;;;;;;;;5009206;28;20187;-86
2023/04/18 07:35:51;;;;;;;23.58;12.57;;;8.50;99.90;;;;;;5009460;28;20224;-86
2023/04/18 07:38:17;;;;;;;25.70;13.63;;;;;;;;;;5012128;28;20209;-87
2023/04/18 07:40:46;;;;;;;21.95;12.98;;;8.50;99.90;;;;;;5017935;28;20187;-87
2023/04/18 07:43:12;;;;;;;25.27;12.68;;;;;;;;;;5000077;28;20205;-87
2023/04/18 07:45:38;;;;;;;23.50;13.70;;;;;;;;;;4999844;28;20210;-86
2023/04/18 07:48:04;;;;;;;21.83;13.70;;;9.00;99.90;;;;;;5004319;28;20456;-87
2023/04/18 07:50:30;;;;;;;23.42;12.35;;;;;;;;;;5016184;28;20451;-86
2023/04/18 07:52:56;;;;;;;27.40;14.20;;;8.90;99.90;;;;;;5009580;28;20187;-86
2023/04/18 07:55:22;;;;;;;21.02;13.15;;;;;;;;;;5029172;28;20449;-86
2023/04/18 07:57:49;;;;;;;25.57;12.50;;;;;;;;;;5003188;28;21034;-87
2023/04/18 08:00:16;;;;;;;24.25;13.60;;;9.20;99.90;;;;;;5002547;28;20481;-89
2023/04/18 08:02:42;;;;;;;24.23;11.60;;;;;;;;;;5002134;28;20190;-89
2023/04/18 08:05:08;;;;;;;24.20;13.37;;;;;;;;;;5006007;28;20256;-85
2023/04/18 08:07:35;;;;;;;21.73;12.50;;;;;;;;;;5010990;28;20467;-88
2023/04/18 08:10:01;;;;;;;22.60;13.27;;;;;;;;;;5006137;28;20178;-83
2023/04/18 08:12:27;;;;;;;31.03;15.90;;;;;;;;;;5026832;28;20261;-83
2023/04/18 08:14:53;;;;;;;24.38;13.65;;;;;;;;;;5026354;28;20487;-84
2023/04/18 08:17:19;;;;;;;26.23;13.13;;;;;;;;;;5005153;28;20203;-86
2023/04/18 08:19:45;;;;;;;25.10;12.57;;;;;;;;;;5007315;28;20445;-85
2023/04/18 08:22:11;;;;;;;23.05;13.73;;;;;;;;;;5008033;28;21903;-84
2023/04/18 08:24:37;;;;;;;20.02;11.10;;;;;;;;;;5013317;28;20183;-84
2023/04/18 08:27:03;;;;;;;24.92;13.65;;;;;;;;;;5028769;28;20192;-85
2023/04/18 08:29:29;;;;;;;20.33;12.13;;;;;;;;;;5019797;28;20240;-87
2023/04/18 08:31:55;;;;;;;22.38;12.25;;;;;;;;;;5012987;28;20186;-87
2023/04/18 08:34:22;;;;;;;26.20;13.97;;;;;;;;;;5017042;28;20192;-85
2023/04/18 08:36:49;;;;;;;18.75;11.90;;;12.20;99.90;;;;;;5004152;28;20471;-84
2023/04/18 08:39:15;;;;;;;18.75;12.48;;;;;;;;;;5024562;28;20300;-84
2023/04/18 08:41:42;;;;;;;18.03;11.70;;;13.60;99.90;;;;;;5002743;28;20234;-85
2023/04/18 08:44:08;;;;;;;20.40;12.70;;;;;;;;;;5007944;28;20442;-86
2023/04/18 08:46:34;;;;;;;15.20;10.90;;;15.90;99.90;;;;;;5008055;28;20538;-83
2023/04/18 08:49:03;;;;;;;21.57;12.30;;;16.40;99.90;;;;;;5009608;28;20512;-84
2023/04/18 08:51:32;;;;;;;19.43;11.80;;;16.30;99.90;;;;;;5001875;28;20441;-87
2023/04/18 08:54:03;;;;;;;15.20;10.10;;;16.50;99.90;;;;;;5020352;28;20435;-86
2023/04/18 08:56:30;;;;;;;19.47;11.17;;;15.70;99.90;;;;;;5009802;28;20468;-85
2023/04/18 08:58:59;;;;;;;18.73;11.60;;;;;;;;;;5006968;28;20437;-85
2023/04/18 09:01:56;;;;;;;19.57;10.60;;;13.80;99.90;;;;;;5010657;28;21467;-85
2023/04/18 09:04:39;;;;;;;19.97;11.50;;;13.40;99.90;;;;;;5006157;28;20463;-85
2023/04/18 09:07:11;;;;;;;14.80;10.50;;;13.40;99.90;;;;;;5024847;28;20481;-85
2023/04/18 09:09:42;;;;;;;23.02;12.40;;;12.90;99.90;;;;;;4996356;28;20217;-85
2023/04/18 09:12:10;;;;;;;23.10;12.93;;;13.30;99.90;;;;;;5015062;28;20217;-87
2023/04/18 09:14:36;;;;;;;17.33;11.67;;;;;;;;;;5003763;28;21217;-84
2023/04/18 09:17:04;;;;;;;19.75;12.35;;;13.10;99.90;;;;;;5001961;28;20464;-87
2023/04/18 09:19:32;;;;;;;15.55;8.95;;;;;;;;;;5003168;28;20190;-86
2023/04/18 09:22:00;;;;;;;17.42;11.50;;;12.30;99.90;;;;;;5013081;28;20187;-87
2023/04/18 09:24:27;;;;;;;20.52;14.50;;;;;;;;;;4998973;28;20190;-83
2023/04/18 09:26:54;;;;;;;18.67;11.30;;;11.90;99.90;;;;;;5010991;28;20211;-85
2023/04/18 09:29:22;;;;;;;20.02;12.07;;;11.90;99.90;;;;;;4999448;28;20221;-87
2023/04/18 09:31:59;;;;;;;24.40;12.52;;;11.90;99.90;;;;;;5001130;28;20178;-85
2023/04/18 09:34:26;;;;;;;18.48;12.05;;;;;;;;;;5020326;28;20202;-87
2023/04/18 09:37:12;;;;;;;18.27;12.30;;;11.90;99.90;;;;;;5006268;28;20194;-84
2023/04/18 09:39:39;;;;;;;19.65;11.35;;;12.20;99.90;;;;;;5010789;28;20190;-85
2023/04/18 09:42:05;;;;;;;18.58;11.60;;;;;;;;;;5012342;28;20225;-86
2023/04/18 09:44:31;;;;;;;18.60;11.90;;;;;;;;;;4993562;28;20190;-86
2023/04/18 09:46:57;;;;;;;25.40;11.82;;;;;;;;;;4996301;28;20218;-84
2023/04/18 09:49:23;;;;;;;17.23;12.03;;;;;;;;;;4995384;28;20199;-86
2023/04/18 09:51:50;;;;;;;18.42;10.32;;;13.60;99.90;;;;;;4999222;28;20439;-85
2023/04/18 09:54:17;;;;;;;20.20;13.50;;;;;;;;;;4997965;28;20418;-85
2023/04/18 09:56:44;;;;;;;16.33;10.57;;;14.10;99.90;;;;;;5006976;28;20444;-85
2023/04/18 09:59:11;;;;;;;18.37;11.37;;;14.00;99.90;;;;;;4996057;28;20471;-85
2023/04/18 10:01:38;;;;;;;16.70;10.73;;;;;;;;;;4991788;28;20464;-86
2023/04/18 10:04:07;;;;;;;17.10;10.13;;;14.40;99.90;;;;;;4994996;28;20489;-87
2023/04/18 10:06:38;;;;;;;20.67;11.53;;;14.30;99.90;;;;;;5002937;28;20469;-86
2023/04/18 10:09:05;;;;;;;20.07;11.57;;;;;;;;;;5014104;28;20468;-86
2023/04/18 10:11:31;;;;;;;16.93;10.83;;;14.00;99.90;;;;;;5005712;28;20428;-85
2023/04/18 10:14:01;;;;;;;22.37;12.27;;;13.90;99.90;;;;;;5009412;28;20444;-84
2023/04/18 10:16:28;;;;;;;20.77;12.07;;;14.00;99.90;;;;;;5003960;28;20457;-84
2023/04/18 10:18:54;;;;;;;17.80;10.80;;;;;;;;;;4996884;28;20448;-86
2023/04/18 10:21:20;;;;;;;22.83;13.60;;;13.70;99.90;;;;;;4998056;28;20438;-84
2023/04/18 10:23:47;;;;;;;21.23;12.63;;;;;;;;;;5004074;28;20444;-85
2023/04/18 10:26:14;;;;;;;24.67;13.40;;;;;;;;;;5000721;28;20458;-86
2023/04/18 10:28:55;;;;;;;20.60;12.40;;;12.10;99.90;;;;;;5007977;28;21160;-85
2023/04/18 10:31:23;;;;;;;17.17;10.30;;;13.60;99.90;;;;;;5021258;28;20456;-84
2023/04/18 10:33:53;;;;;;;19.17;9.83;;;13.70;99.90;;;;;;5018472;28;21746;-86
2023/04/18 10:36:20;;;;;;;17.00;10.80;;;;;;;;;;5016321;28;20450;-84
2023/04/18 10:38:54;;;;;;;20.15;11.38;;;13.80;99.90;;;;;;5018524;28;20428;-84
2023/04/18 10:41:31;;;;;;;18.10;11.90;;;14.00;99.90;;;;;;5019417;28;20170;-83
2023/04/18 10:44:08;;;;;;;17.30;11.70;;;14.20;99.90;;;;;;5023803;28;20458;-83
2023/04/18 10:46:35;;;;;;;16.50;10.50;;;14.00;99.90;;;;;;5013165;28;20462;-85
2023/04/18 10:49:27;;;;;;;18.67;11.63;;;13.20;99.90;;;;;;5026403;28;20468;-86
2023/04/18 10:51:57;;;;;;;13.30;9.87;;;13.20;99.90;;;;;;5000477;28;20449;-87
2023/04/18 10:54:55;;;;;;;16.77;11.00;;;13.20;99.90;;;;;;5020730;28;20932;-85
2023/04/18 10:57:21;;;;;;;17.60;12.40;;;13.00;99.90;;;;;;5013690;28;20203;-83
2023/04/18 10:59:51;;;;;;;21.20;12.00;;;13.10;99.90;;;;;;5016696;28;20441;-84
2023/04/18 11:02:32;;;;;;;15.83;11.27;;;13.10;99.90;;;;;;5030059;28;20186;-86
2023/04/18 11:05:06;;;;;;;14.57;11.30;;;13.00;99.90;;;;;;5033815;28;20445;-86
2023/04/18 11:07:32;;;;;;;23.47;12.47;;;;;;;;;;5031065;28;20221;-84
2023/04/18 11:09:58;;;;;;;18.92;10.45;;;;;;;;;;5001906;28;20433;-84
2023/04/18 11:12:29;;;;;;;17.73;11.73;;;12.80;99.90;;;;;;5018213;28;20238;-85
2023/04/18 11:14:55;;;;;;;20.90;10.85;;;;;;;;;;5001009;28;20365;-84
2023/04/18 11:17:26;;;;;;;15.27;9.40;;;13.10;99.90;;;;;;5000377;28;20203;-85
2023/04/18 11:20:08;;;;;;;21.10;11.15;;;13.10;99.90;;;;;;5008572;28;20866;-84
2023/04/18 11:22:55;;;;;;;19.77;12.43;;;13.50;99.90;;;;;;5012173;28;20187;-86
2023/04/18 11:25:33;;;;;;;19.25;12.05;;;13.40;99.90;;;;;;5001220;28;20231;-86
2023/04/18 11:28:00;;;;;;;16.20;11.03;;;13.40;99.90;;;;;;5000463;28;20214;-86
2023/04/18 11:30:26;;;;;;;22.47;12.07;;;;;;;;;;5019384;28;20484;-82
2023/04/18 11:32:52;;;;;;;20.20;11.30;;;;;;;;;;5012360;28;20486;-83
2023/04/18 11:35:19;;;;;;;21.03;11.60;;;;;;;;;;5005383;28;20446;-83
2023/04/18 11:37:45;;;;;;;18.50;11.20;;;;;;;;;;5024430;28;20505;-85
2023/04/18 11:40:12;;;;;;;20.37;13.50;;;12.90;99.90;;;;;;5019115;28;20457;-86
2023/04/18 11:42:39;;;;;;;17.80;10.80;;;13.00;99.90;;;;;;5019381;28;20456;-86
2023/04/18 11:45:15;;;;;;;19.77;11.00;;;12.80;99.90;;;;;;5006871;28;20413;-84
2023/04/18 11:47:41;;;;;;;22.33;11.17;;;12.90;99.90;;;;;;5015680;28;20459;-87
2023/04/18 11:50:09;;;;;;;18.00;11.60;;;12.60;99.90;;;;;;5027811;28;20502;-83
2023/04/18 11:52:35;;;;;;;18.30;10.90;;;;;;;;;;5028908;28;20475;-86
2023/04/18 11:55:23;;;;;;;15.10;10.37;;;12.70;99.90;;;;;;5007090;28;20429;-86
2023/04/18 11:57:55;;;;;;;19.90;11.80;;;12.70;99.90;;;;;;5006992;28;20430;-87
2023/04/18 12:00:32;;;;;;;18.73;11.43;;;12.90;99.90;;;;;;5005093;28;20870;-85
2023/04/18 12:03:00;;;;;;;18.07;11.87;;;;;;;;;;5004784;28;20444;-85
2023/04/18 12:05:36;;;;;;;14.13;9.97;;;13.60;99.90;;;;;;5005614;28;20473;-86
2023/04/18 12:08:19;;;;;;;19.60;10.80;;;14.00;99.90;;;;;;5017350;28;20457;-85
2023/04/18 12:10:46;;;;;;;14.07;9.23;;;14.40;99.90;;;;;;5006043;28;20439;-86
2023/04/18 12:13:12;;;;;;;16.93;9.57;;;;;;;;;;5006109;28;20441;-86
2023/04/18 12:15:42;;;;;;;16.57;10.60;;;14.70;99.90;;;;;;4998145;28;20484;-86
2023/04/18 12:18:08;;;;;;;17.03;10.60;;;;;;;;;;5015254;28;20448;-87
2023/04/18 12:20:57;;;;;;;16.97;8.63;;;15.50;99.90;;;;;;5004489;28;20460;-87
2023/04/18 12:23:36;;;;;;;13.17;8.70;;;15.00;99.90;;;;;;5004413;28;20472;-87
2023/04/18 12:26:06;;;;;;;14.00;9.60;;;14.60;99.90;;;;;;5006036;28;20460;-85
2023/04/18 12:28:33;;;;;;;13.03;9.50;;;14.40;99.90;;;;;;5013898;28;20472;-85
2023/04/18 12:30:59;;;;;;;14.50;8.50;;;;;;;;;;5027304;28;20441;-84
2023/04/18 12:33:25;;;;;;;13.13;8.43;;;;;;;;;;4990548;28;21081;-85
2023/04/18 12:35:51;;;;;;;13.47;8.90;;;;;;;;;;4995903;28;20489;-83
2023/04/18 12:38:21;;;;;;;13.87;9.40;;;13.40;99.90;;;;;;4997276;28;20491;-85
2023/04/18 12:40:47;;;;;;;16.60;9.30;;;;;;;;;;4997704;28;20995;-86
2023/04/18 12:43:13;;;;;;;13.10;8.10;;;;;;;;;;5015471;28;20475;-83
2023/04/18 12:45:39;;;;;;;13.40;8.63;;;;;;;;;;5025029;28;20468;-83
2023/04/18 12:48:05;;;;;;;13.13;8.63;;;;;;;;;;5020933;28;20532;-85
2023/04/18 12:50:31;;;;;;;11.27;8.37;;;;;;;;;;5009910;28;20782;-84
2023/04/18 12:52:59;;;;;;;11.17;8.13;;;13.90;99.90;;;;;;5005783;28;20870;-85
2023/04/18 12:55:25;;;;;;;9.33;6.77;;;;;;;;;;5023516;28;20442;-84
2023/04/18 12:57:54;;;;;;;11.90;8.93;;;14.20;99.90;;;;;;5008251;28;20426;-84
2023/04/18 13:00:22;;;;;;;8.83;6.03;;;14.50;99.90;;;;;;5043864;28;20429;-84
2023/04/18 13:02:49;;;;;;;16.00;7.67;;;14.80;99.90;;;;;;5024185;28;20456;-85
2023/04/18 13:05:16;;;;;;;12.53;8.27;;;14.90;99.90;;;;;;5015700;28;20748;-86